sensor_id;sensor_type;location;lat;lon;timestamp;P1;durP1;ratioP1;P2;durP2;ratioP2
35462;SDS011;21578;47.892;9.970;2022-12-28T00:01:04;3.23;;;2.73;;
35462;SDS011;21578;47.892;9.970;2022-12-28T00:05:52;3.10;;;2.50;;
35462;SDS011;21578;47.892;9.970;2022-12-28T00:10:40;2.97;;;2.50;;
35462;SDS011;21578;47.892;9.970;2022-12-28T00:15:27;3.40;;;3.00;;
35462;SDS011;21578;47.892;9.970;2022-12-28T00:20:15;3.13;;;2.73;;
35462;SDS011;21578;47.892;9.970;2022-12-28T00:25:02;3.30;;;2.97;;
35462;SDS011;21578;47.892;9.970;2022-12-28T00:29:51;3.30;;;3.03;;
35462;SDS011;21578;47.892;9.970;2022-12-28T00:34:38;2.70;;;2.60;;
35462;SDS011;21578;47.892;9.970;2022-12-28T00:39:25;3.13;;;2.83;;
35462;SDS011;21578;47.892;9.970;2022-12-28T00:44:12;2.87;;;2.60;;
35462;SDS011;21578;47.892;9.970;2022-12-28T00:49:00;3.07;;;2.70;;
35462;SDS011;21578;47.892;9.970;2022-12-28T00:53:47;2.90;;;2.70;;
35462;SDS011;21578;47.892;9.970;2022-12-28T00:58:35;2.60;;;2.40;;
35462;SDS011;21578;47.892;9.970;2022-12-28T01:03:22;3.13;;;2.87;;
35462;SDS011;21578;47.892;9.970;2022-12-28T01:08:13;2.80;;;2.60;;
35462;SDS011;21578;47.892;9.970;2022-12-28T01:13:00;2.30;;;2.10;;
35462;SDS011;21578;47.892;9.970;2022-12-28T01:17:47;2.70;;;2.37;;
35462;SDS011;21578;47.892;9.970;2022-12-28T01:22:34;2.00;;;1.90;;
35462;SDS011;21578;47.892;9.970;2022-12-28T01:27:23;2.13;;;1.93;;
35462;SDS011;21578;47.892;9.970;2022-12-28T01:32:10;1.90;;;1.80;;
35462;SDS011;21578;47.892;9.970;2022-12-28T01:36:57;2.10;;;2.00;;
35462;SDS011;21578;47.892;9.970;2022-12-28T01:41:44;4.03;;;2.17;;
35462;SDS011;21578;47.892;9.970;2022-12-28T01:46:33;1.90;;;1.67;;
35462;SDS011;21578;47.892;9.970;2022-12-28T01:51:23;1.53;;;1.43;;
35462;SDS011;21578;47.892;9.970;2022-12-28T01:56:13;2.67;;;1.60;;
35462;SDS011;21578;47.892;9.970;2022-12-28T02:01:01;1.40;;;1.30;;
35462;SDS011;21578;47.892;9.970;2022-12-28T02:05:51;1.43;;;1.33;;
35462;SDS011;21578;47.892;9.970;2022-12-28T02:10:41;1.20;;;1.20;;
35462;SDS011;21578;47.892;9.970;2022-12-28T02:15:28;5.67;;;3.13;;
35462;SDS011;21578;47.892;9.970;2022-12-28T02:20:15;1.10;;;1.00;;
35462;SDS011;21578;47.892;9.970;2022-12-28T02:25:12;1.30;;;1.20;;
35462;SDS011;21578;47.892;9.970;2022-12-28T02:30:32;0.80;;;0.80;;
35462;SDS011;21578;47.892;9.970;2022-12-28T02:35:27;1.40;;;1.07;;
35462;SDS011;21578;47.892;9.970;2022-12-28T02:40:20;2.17;;;1.10;;
35462;SDS011;21578;47.892;9.970;2022-12-28T02:45:24;1.23;;;1.00;;
35462;SDS011;21578;47.892;9.970;2022-12-28T02:50:33;1.40;;;0.90;;
35462;SDS011;21578;47.892;9.970;2022-12-28T02:55:34;1.20;;;0.90;;
35462;SDS011;21578;47.892;9.970;2022-12-28T03:00:50;0.70;;;0.70;;
35462;SDS011;21578;47.892;9.970;2022-12-28T03:05:47;0.60;;;0.60;;
35462;SDS011;21578;47.892;9.970;2022-12-28T03:10:59;0.70;;;0.70;;
35462;SDS011;21578;47.892;9.970;2022-12-28T03:15:50;0.67;;;0.67;;
35462;SDS011;21578;47.892;9.970;2022-12-28T03:20:37;0.97;;;0.70;;
35462;SDS011;21578;47.892;9.970;2022-12-28T03:25:43;0.93;;;0.93;;
35462;SDS011;21578;47.892;9.970;2022-12-28T03:30:50;0.60;;;0.60;;
35462;SDS011;21578;47.892;9.970;2022-12-28T03:35:51;1.63;;;0.70;;
35462;SDS011;21578;47.892;9.970;2022-12-28T03:40:46;0.83;;;0.80;;
35462;SDS011;21578;47.892;9.970;2022-12-28T03:45:36;0.80;;;0.80;;
35462;SDS011;21578;47.892;9.970;2022-12-28T03:50:27;0.60;;;0.60;;
35462;SDS011;21578;47.892;9.970;2022-12-28T03:55:15;1.03;;;0.60;;
35462;SDS011;21578;47.892;9.970;2022-12-28T04:00:05;0.53;;;0.50;;
35462;SDS011;21578;47.892;9.970;2022-12-28T04:04:54;0.93;;;0.60;;
35462;SDS011;21578;47.892;9.970;2022-12-28T04:09:41;0.60;;;0.60;;
35462;SDS011;21578;47.892;9.970;2022-12-28T04:14:28;0.50;;;0.50;;
35462;SDS011;21578;47.892;9.970;2022-12-28T04:19:17;0.93;;;0.50;;
35462;SDS011;21578;47.892;9.970;2022-12-28T04:24:04;0.50;;;0.50;;
35462;SDS011;21578;47.892;9.970;2022-12-28T04:28:51;0.50;;;0.50;;
35462;SDS011;21578;47.892;9.970;2022-12-28T04:33:38;0.40;;;0.40;;
35462;SDS011;21578;47.892;9.970;2022-12-28T04:38:27;2.63;;;0.60;;
35462;SDS011;21578;47.892;9.970;2022-12-28T04:43:14;0.80;;;0.70;;
35462;SDS011;21578;47.892;9.970;2022-12-28T04:48:01;0.80;;;0.50;;
35462;SDS011;21578;47.892;9.970;2022-12-28T04:52:49;0.57;;;0.47;;
35462;SDS011;21578;47.892;9.970;2022-12-28T04:57:37;0.60;;;0.50;;
35462;SDS011;21578;47.892;9.970;2022-12-28T05:02:24;0.50;;;0.30;;
35462;SDS011;21578;47.892;9.970;2022-12-28T05:07:11;0.53;;;0.40;;
35462;SDS011;21578;47.892;9.970;2022-12-28T05:11:58;0.37;;;0.30;;
35462;SDS011;21578;47.892;9.970;2022-12-28T05:16:47;0.20;;;0.20;;
35462;SDS011;21578;47.892;9.970;2022-12-28T05:21:36;0.20;;;0.20;;
35462;SDS011;21578;47.892;9.970;2022-12-28T05:26:23;0.30;;;0.20;;
35462;SDS011;21578;47.892;9.970;2022-12-28T05:31:14;0.13;;;0.13;;
35462;SDS011;21578;47.892;9.970;2022-12-28T05:36:04;0.20;;;0.20;;
35462;SDS011;21578;47.892;9.970;2022-12-28T05:40:52;0.20;;;0.20;;
35462;SDS011;21578;47.892;9.970;2022-12-28T05:45:39;0.20;;;0.20;;
35462;SDS011;21578;47.892;9.970;2022-12-28T05:50:26;0.33;;;0.30;;
35462;SDS011;21578;47.892;9.970;2022-12-28T05:55:14;0.20;;;0.20;;
35462;SDS011;21578;47.892;9.970;2022-12-28T06:00:02;0.27;;;0.27;;
35462;SDS011;21578;47.892;9.970;2022-12-28T06:04:50;0.40;;;0.30;;
35462;SDS011;21578;47.892;9.970;2022-12-28T06:09:37;0.20;;;0.20;;
35462;SDS011;21578;47.892;9.970;2022-12-28T06:14:25;0.30;;;0.07;;
35462;SDS011;21578;47.892;9.970;2022-12-28T06:19:12;0.40;;;0.20;;
35462;SDS011;21578;47.892;9.970;2022-12-28T06:24:00;0.27;;;0.10;;
35462;SDS011;21578;47.892;9.970;2022-12-28T06:28:48;0.30;;;0.10;;
35462;SDS011;21578;47.892;9.970;2022-12-28T06:33:36;0.10;;;0.10;;
35462;SDS011;21578;47.892;9.970;2022-12-28T06:38:24;0.20;;;0.20;;
35462;SDS011;21578;47.892;9.970;2022-12-28T06:43:13;0.13;;;0.10;;
35462;SDS011;21578;47.892;9.970;2022-12-28T06:48:01;0.10;;;0.10;;
35462;SDS011;21578;47.892;9.970;2022-12-28T06:52:50;0.70;;;0.20;;
35462;SDS011;21578;47.892;9.970;2022-12-28T06:57:37;0.13;;;0.10;;
35462;SDS011;21578;47.892;9.970;2022-12-28T07:02:24;0.47;;;0.20;;
35462;SDS011;21578;47.892;9.970;2022-12-28T07:07:11;0.20;;;0.20;;
35462;SDS011;21578;47.892;9.970;2022-12-28T07:11:59;0.10;;;0.10;;
35462;SDS011;21578;47.892;9.970;2022-12-28T07:16:46;0.10;;;0.10;;
35462;SDS011;21578;47.892;9.970;2022-12-28T07:21:35;0.20;;;0.20;;
35462;SDS011;21578;47.892;9.970;2022-12-28T07:26:23;0.20;;;0.20;;
35462;SDS011;21578;47.892;9.970;2022-12-28T07:31:15;0.50;;;0.10;;
35462;SDS011;21578;47.892;9.970;2022-12-28T07:36:03;0.10;;;0.10;;
35462;SDS011;21578;47.892;9.970;2022-12-28T07:40:52;0.40;;;0.17;;
35462;SDS011;21578;47.892;9.970;2022-12-28T07:45:47;0.10;;;0.10;;
35462;SDS011;21578;47.892;9.970;2022-12-28T07:50:35;0.20;;;0.20;;
35462;SDS011;21578;47.892;9.970;2022-12-28T07:55:22;0.10;;;0.10;;
35462;SDS011;21578;47.892;9.970;2022-12-28T08:00:14;0.30;;;0.27;;
35462;SDS011;21578;47.892;9.970;2022-12-28T08:05:01;1.03;;;0.17;;
35462;SDS011;21578;47.892;9.970;2022-12-28T08:09:49;0.20;;;0.20;;
35462;SDS011;21578;47.892;9.970;2022-12-28T08:14:36;0.20;;;0.20;;
35462;SDS011;21578;47.892;9.970;2022-12-28T08:19:23;0.47;;;0.10;;
35462;SDS011;21578;47.892;9.970;2022-12-28T08:24:12;0.53;;;0.20;;
35462;SDS011;21578;47.892;9.970;2022-12-28T08:29:04;0.83;;;0.23;;
35462;SDS011;21578;47.892;9.970;2022-12-28T08:33:53;0.40;;;0.40;;
35462;SDS011;21578;47.892;9.970;2022-12-28T08:38:42;0.83;;;0.17;;
35462;SDS011;21578;47.892;9.970;2022-12-28T08:43:30;0.30;;;0.20;;
35462;SDS011;21578;47.892;9.970;2022-12-28T08:48:19;0.60;;;0.37;;
35462;SDS011;21578;47.892;9.970;2022-12-28T08:53:06;0.10;;;0.10;;
35462;SDS011;21578;47.892;9.970;2022-12-28T08:57:53;0.63;;;0.30;;
35462;SDS011;21578;47.892;9.970;2022-12-28T09:02:41;0.20;;;0.20;;
35462;SDS011;21578;47.892;9.970;2022-12-28T09:07:29;0.50;;;0.20;;
35462;SDS011;21578;47.892;9.970;2022-12-28T09:12:16;0.53;;;0.20;;
35462;SDS011;21578;47.892;9.970;2022-12-28T09:17:03;0.57;;;0.30;;
35462;SDS011;21578;47.892;9.970;2022-12-28T09:21:50;0.70;;;0.20;;
35462;SDS011;21578;47.892;9.970;2022-12-28T09:26:40;0.10;;;0.10;;
35462;SDS011;21578;47.892;9.970;2022-12-28T09:31:28;0.20;;;0.20;;
35462;SDS011;21578;47.892;9.970;2022-12-28T09:36:16;0.20;;;0.20;;
35462;SDS011;21578;47.892;9.970;2022-12-28T09:41:09;0.30;;;0.13;;
35462;SDS011;21578;47.892;9.970;2022-12-28T09:45:58;0.30;;;0.20;;
35462;SDS011;21578;47.892;9.970;2022-12-28T09:50:46;0.30;;;0.20;;
35462;SDS011;21578;47.892;9.970;2022-12-28T09:55:35;0.10;;;0.10;;
35462;SDS011;21578;47.892;9.970;2022-12-28T10:00:25;0.33;;;0.20;;
35462;SDS011;21578;47.892;9.970;2022-12-28T10:05:20;0.10;;;0.10;;
35462;SDS011;21578;47.892;9.970;2022-12-28T10:10:08;1.63;;;0.30;;
35462;SDS011;21578;47.892;9.970;2022-12-28T10:15:01;0.40;;;0.20;;
35462;SDS011;21578;47.892;9.970;2022-12-28T10:19:51;0.33;;;0.20;;
35462;SDS011;21578;47.892;9.970;2022-12-28T10:24:43;0.20;;;0.20;;
35462;SDS011;21578;47.892;9.970;2022-12-28T10:29:31;0.10;;;0.10;;
35462;SDS011;21578;47.892;9.970;2022-12-28T10:34:19;0.20;;;0.20;;
35462;SDS011;21578;47.892;9.970;2022-12-28T10:39:08;0.10;;;0.10;;
35462;SDS011;21578;47.892;9.970;2022-12-28T10:44:06;1.13;;;0.20;;
35462;SDS011;21578;47.892;9.970;2022-12-28T10:49:00;0.10;;;0.10;;
35462;SDS011;21578;47.892;9.970;2022-12-28T10:53:49;0.57;;;0.40;;
35462;SDS011;21578;47.892;9.970;2022-12-28T10:58:39;0.70;;;0.20;;
35462;SDS011;21578;47.892;9.970;2022-12-28T11:03:29;0.30;;;0.20;;
35462;SDS011;21578;47.892;9.970;2022-12-28T11:08:19;0.33;;;0.20;;
35462;SDS011;21578;47.892;9.970;2022-12-28T11:13:10;0.43;;;0.20;;
35462;SDS011;21578;47.892;9.970;2022-12-28T11:18:10;0.53;;;0.20;;
35462;SDS011;21578;47.892;9.970;2022-12-28T11:23:02;0.27;;;0.27;;
35462;SDS011;21578;47.892;9.970;2022-12-28T11:27:51;0.20;;;0.20;;
35462;SDS011;21578;47.892;9.970;2022-12-28T11:32:38;0.53;;;0.13;;
35462;SDS011;21578;47.892;9.970;2022-12-28T11:37:31;0.20;;;0.10;;
35462;SDS011;21578;47.892;9.970;2022-12-28T11:47:39;0.53;;;0.23;;
35462;SDS011;21578;47.892;9.970;2022-12-28T11:52:33;0.60;;;0.20;;
35462;SDS011;21578;47.892;9.970;2022-12-28T11:57:33;5.57;;;2.80;;
35462;SDS011;21578;47.892;9.970;2022-12-28T12:02:39;0.77;;;0.20;;
35462;SDS011;21578;47.892;9.970;2022-12-28T12:12:33;0.93;;;0.20;;
35462;SDS011;21578;47.892;9.970;2022-12-28T12:17:24;0.40;;;0.20;;
35462;SDS011;21578;47.892;9.970;2022-12-28T12:22:20;0.20;;;0.20;;
35462;SDS011;21578;47.892;9.970;2022-12-28T12:27:11;0.20;;;0.17;;
35462;SDS011;21578;47.892;9.970;2022-12-28T12:32:02;0.20;;;0.17;;
35462;SDS011;21578;47.892;9.970;2022-12-28T12:42:32;0.10;;;0.10;;
35462;SDS011;21578;47.892;9.970;2022-12-28T12:52:51;0.40;;;0.30;;
35462;SDS011;21578;47.892;9.970;2022-12-28T12:57:49;1.03;;;0.30;;
35462;SDS011;21578;47.892;9.970;2022-12-28T13:02:53;0.10;;;0.10;;
35462;SDS011;21578;47.892;9.970;2022-12-28T13:07:55;0.30;;;0.10;;
35462;SDS011;21578;47.892;9.970;2022-12-28T13:12:44;0.10;;;0.10;;
35462;SDS011;21578;47.892;9.970;2022-12-28T13:17:32;0.33;;;0.20;;
35462;SDS011;21578;47.892;9.970;2022-12-28T13:22:26;0.43;;;0.20;;
35462;SDS011;21578;47.892;9.970;2022-12-28T13:27:16;0.20;;;0.10;;
35462;SDS011;21578;47.892;9.970;2022-12-28T13:37:13;0.30;;;0.10;;
35462;SDS011;21578;47.892;9.970;2022-12-28T13:42:03;0.97;;;0.20;;
35462;SDS011;21578;47.892;9.970;2022-12-28T13:46:52;0.20;;;0.20;;
35462;SDS011;21578;47.892;9.970;2022-12-28T13:51:43;0.77;;;0.30;;
35462;SDS011;21578;47.892;9.970;2022-12-28T13:56:32;0.60;;;0.30;;
35462;SDS011;21578;47.892;9.970;2022-12-28T14:01:24;0.87;;;0.20;;
35462;SDS011;21578;47.892;9.970;2022-12-28T14:06:15;0.73;;;0.30;;
35462;SDS011;21578;47.892;9.970;2022-12-28T14:11:04;0.47;;;0.27;;
35462;SDS011;21578;47.892;9.970;2022-12-28T14:15:54;0.40;;;0.30;;
35462;SDS011;21578;47.892;9.970;2022-12-28T14:20:45;1.40;;;0.30;;
35462;SDS011;21578;47.892;9.970;2022-12-28T14:25:39;0.50;;;0.30;;
35462;SDS011;21578;47.892;9.970;2022-12-28T14:30:28;0.20;;;0.20;;
35462;SDS011;21578;47.892;9.970;2022-12-28T14:35:19;1.17;;;0.30;;
35462;SDS011;21578;47.892;9.970;2022-12-28T14:40:10;0.20;;;0.20;;
35462;SDS011;21578;47.892;9.970;2022-12-28T14:45:21;0.40;;;0.20;;
35462;SDS011;21578;47.892;9.970;2022-12-28T14:50:24;0.30;;;0.20;;
35462;SDS011;21578;47.892;9.970;2022-12-28T14:55:20;0.40;;;0.30;;
35462;SDS011;21578;47.892;9.970;2022-12-28T15:00:20;0.33;;;0.20;;
35462;SDS011;21578;47.892;9.970;2022-12-28T15:10:21;0.50;;;0.10;;
35462;SDS011;21578;47.892;9.970;2022-12-28T15:15:08;0.63;;;0.40;;
35462;SDS011;21578;47.892;9.970;2022-12-28T15:19:56;0.87;;;0.27;;
35462;SDS011;21578;47.892;9.970;2022-12-28T15:24:44;0.93;;;0.30;;
35462;SDS011;21578;47.892;9.970;2022-12-28T15:29:32;2.87;;;0.37;;
35462;SDS011;21578;47.892;9.970;2022-12-28T15:34:19;2.10;;;0.30;;
35462;SDS011;21578;47.892;9.970;2022-12-28T15:39:06;0.60;;;0.30;;
35462;SDS011;21578;47.892;9.970;2022-12-28T15:43:57;0.23;;;0.23;;
35462;SDS011;21578;47.892;9.970;2022-12-28T15:48:44;0.53;;;0.30;;
35462;SDS011;21578;47.892;9.970;2022-12-28T15:53:32;0.60;;;0.30;;
35462;SDS011;21578;47.892;9.970;2022-12-28T15:58:19;1.07;;;0.30;;
35462;SDS011;21578;47.892;9.970;2022-12-28T16:03:07;0.40;;;0.40;;
35462;SDS011;21578;47.892;9.970;2022-12-28T16:07:54;1.10;;;0.60;;
35462;SDS011;21578;47.892;9.970;2022-12-28T16:12:41;0.50;;;0.50;;
35462;SDS011;21578;47.892;9.970;2022-12-28T16:17:28;2.80;;;0.60;;
35462;SDS011;21578;47.892;9.970;2022-12-28T16:22:17;0.40;;;0.40;;
35462;SDS011;21578;47.892;9.970;2022-12-28T16:27:04;0.77;;;0.70;;
35462;SDS011;21578;47.892;9.970;2022-12-28T16:31:51;0.60;;;0.57;;
35462;SDS011;21578;47.892;9.970;2022-12-28T16:36:39;0.50;;;0.50;;
35462;SDS011;21578;47.892;9.970;2022-12-28T16:41:27;0.50;;;0.50;;
35462;SDS011;21578;47.892;9.970;2022-12-28T16:46:15;0.40;;;0.40;;
35462;SDS011;21578;47.892;9.970;2022-12-28T16:51:04;0.50;;;0.50;;
35462;SDS011;21578;47.892;9.970;2022-12-28T16:55:51;0.40;;;0.40;;
35462;SDS011;21578;47.892;9.970;2022-12-28T17:00:40;2.40;;;1.27;;
35462;SDS011;21578;47.892;9.970;2022-12-28T17:05:27;0.40;;;0.40;;
35462;SDS011;21578;47.892;9.970;2022-12-28T17:10:18;0.50;;;0.50;;
35462;SDS011;21578;47.892;9.970;2022-12-28T17:15:05;5.97;;;4.07;;
35462;SDS011;21578;47.892;9.970;2022-12-28T17:19:54;17.33;;;14.03;;
35462;SDS011;21578;47.892;9.970;2022-12-28T17:24:41;40.50;;;26.20;;
35462;SDS011;21578;47.892;9.970;2022-12-28T17:29:28;128.70;;;60.73;;
35462;SDS011;21578;47.892;9.970;2022-12-28T17:34:16;169.40;;;74.30;;
35462;SDS011;21578;47.892;9.970;2022-12-28T17:39:04;62.07;;;27.60;;
35462;SDS011;21578;47.892;9.970;2022-12-28T17:43:52;75.50;;;32.67;;
35462;SDS011;21578;47.892;9.970;2022-12-28T17:48:41;10.17;;;7.40;;
35462;SDS011;21578;47.892;9.970;2022-12-28T20:21:44;187.13;;;71.77;;
35462;SDS011;21578;47.892;9.970;2022-12-28T20:26:33;328.27;;;117.57;;
35462;SDS011;21578;47.892;9.970;2022-12-28T20:31:20;191.53;;;81.37;;
35462;SDS011;21578;47.892;9.970;2022-12-28T20:36:09;111.27;;;52.40;;
